Hundvaag 1 weather for Apr 2002
Month no. 178
Obs.
Da.
Temp. Dew Point Precip. Wind
Speed
Wind gusts Cloud cover Press. Humidity Wind dir. Sunny OPT
01.04.2002 10,5   0,0     0 1013,1        
02.04.2002 8,5   3,0     0 1014,6        
03.04.2002 10,5   0,0     0 1017,4     1  
04.04.2002 7,0   0,0     10 1017,7     1  
05.04.2002 4,8   0,0     10 1018,6     1  
06.04.2002 5,3   0,0     10 1021,3     1  
07.04.2002 5,3   0,0     0 1020,0     1  
08.04.2002 1,6   0,0     10 1020,6     1  
09.04.2002 5,1   0,9     0 1020,5     1  
10.04.2002 0,9   0,2     9 1022,7     1  
11.04.2002 4,8   0,0     0 1018,6     1  
12.04.2002 3,4   0,0     0 1012,1        
13.04.2002 4,6   0,0     10 1010,7     1  
14.04.2002 8,1   0,0     0 1011,2        
15.04.2002 6,9   6,2     0 1014,6        
16.04.2002 6,7   0,0     2 1016,3     1  
17.04.2002 1,6   0,0     10 1016,7     1  
18.04.2002 6,1   0,2     0 1015,9     1  
19.04.2002 6,7   0,0     0 1022,0     1  
20.04.2002 8,9   0,0     0 1024,9        
21.04.2002 9,5   0,0     0 1020,0        
22.04.2002 7,9   1,8     0 1017,4        
23.04.2002 8,1   10,5     0 1018,9     1  
24.04.2002 5,9   6,6     4 1015,4        
25.04.2002 4,7   0,7     3 1009,2        
26.04.2002 7,3   0,6     3 1001,2        
27.04.2002 5,9   7,5     4 1001,3     1  
28.04.2002 7,5   0,4     8 1002,7     1  
29.04.2002 7,6   5,7     0 994,6        
30.04.2002 5,4   5,5     0 998,7        
                       
Avrg/Sum 6,2   49,8     3,1 1014,3     17